createdAt,value
2022-11-19T00:02:09.948Z,6.78
2022-11-19T00:04:39.704Z,6.83
2022-11-19T00:07:07.964Z,6.90
2022-11-19T00:09:36.245Z,6.87
2022-11-19T00:12:22.095Z,6.94
2022-11-19T00:14:50.376Z,6.49
2022-11-19T00:17:18.724Z,6.99
2022-11-19T00:19:48.417Z,6.98
2022-11-19T00:22:16.564Z,6.92
2022-11-19T00:24:44.832Z,6.85
2022-11-19T00:27:13.353Z,6.81
2022-11-19T00:29:41.488Z,6.74
2022-11-19T00:32:09.618Z,6.67
2022-11-19T00:34:38.041Z,6.89
2022-11-19T00:37:07.625Z,6.85
2022-11-19T00:39:35.861Z,7.00
2022-11-19T00:42:04.010Z,6.92
2022-11-19T00:44:36.915Z,6.94
2022-11-19T00:47:05.592Z,6.83
2022-11-19T00:49:33.799Z,6.05
2022-11-19T00:52:01.984Z,6.61
2022-11-19T00:54:31.736Z,6.67
2022-11-19T00:57:00.283Z,6.71
2022-11-19T00:59:28.748Z,6.66
2022-11-19T01:01:57.010Z,6.58
2022-11-19T01:04:25.416Z,6.68
2022-11-19T01:06:53.666Z,6.67
2022-11-19T01:09:22.013Z,6.73
2022-11-19T01:11:51.711Z,6.87
2022-11-19T01:14:20.026Z,6.86
2022-11-19T01:16:48.222Z,6.79
2022-11-19T01:19:16.635Z,6.77
2022-11-19T01:21:45.140Z,6.82
2022-11-19T01:24:13.341Z,6.87
2022-11-19T01:26:45.538Z,6.84
2022-11-19T01:29:15.865Z,6.80
2022-11-19T01:31:44.187Z,6.91
2022-11-19T01:34:12.395Z,6.86
2022-11-19T01:36:40.636Z,6.89
2022-11-19T01:39:08.852Z,6.88
2022-11-19T01:41:37.038Z,6.87
2022-11-19T01:44:07.318Z,6.91
2022-11-19T01:46:38.764Z,6.87
2022-11-19T01:49:10.356Z,6.95
2022-11-19T01:51:40.302Z,6.89
2022-11-19T01:54:13.841Z,7.00
2022-11-19T01:56:41.951Z,6.95
2022-11-19T01:59:15.451Z,6.58
2022-11-19T02:01:45.768Z,6.76
2022-11-19T02:04:16.628Z,6.67
2022-11-19T02:06:46.251Z,6.76
2022-11-19T02:09:14.466Z,6.77
2022-11-19T02:12:05.875Z,6.72
2022-11-19T02:14:50.541Z,6.70
2022-11-19T02:17:36.795Z,6.67
2022-11-19T02:20:34.540Z,6.67
2022-11-19T02:23:31.438Z,6.69
2022-11-19T02:26:29.397Z,6.70
2022-11-19T02:29:07.672Z,6.64
2022-11-19T02:31:42.600Z,6.68
2022-11-19T02:34:15.612Z,6.47
2022-11-19T02:36:48.245Z,6.62
2022-11-19T02:39:24.158Z,6.60
2022-11-19T02:42:00.988Z,6.59
2022-11-19T02:44:51.663Z,6.56
2022-11-19T02:47:25.008Z,6.49
2022-11-19T02:49:58.447Z,6.52
2022-11-19T02:52:26.788Z,6.53
2022-11-19T02:54:55.013Z,6.54
2022-11-19T02:57:23.204Z,6.54
2022-11-19T03:00:14.844Z,6.21
2022-11-19T03:03:06.187Z,6.24
2022-11-19T03:05:37.056Z,6.13
2022-11-19T03:08:05.883Z,6.03
2022-11-19T03:10:43.661Z,4.67
2022-11-19T03:13:38.735Z,5.78
2022-11-19T03:16:29.781Z,5.88
2022-11-19T03:19:05.582Z,5.49
2022-11-19T03:21:40.177Z,5.88
2022-11-19T03:24:12.903Z,5.90
2022-11-19T03:26:45.786Z,5.91
2022-11-19T03:29:16.252Z,5.76
2022-11-19T03:31:49.144Z,5.94
2022-11-19T03:34:22.127Z,6.03
2022-11-19T03:36:53.912Z,5.48
2022-11-19T03:39:23.528Z,6.03
2022-11-19T03:41:54.312Z,5.77
2022-11-19T03:44:28.464Z,6.00
2022-11-19T03:47:00.614Z,5.46
2022-11-19T03:49:34.741Z,6.02
2022-11-19T03:52:08.446Z,6.04
2022-11-19T03:54:36.643Z,6.01
2022-11-19T03:57:06.880Z,6.04
2022-11-19T03:59:35.328Z,6.02
2022-11-19T04:02:06.362Z,6.06
2022-11-19T04:04:39.125Z,6.06
2022-11-19T04:07:09.314Z,6.05
2022-11-19T04:09:37.861Z,6.09
2022-11-19T04:12:07.265Z,5.95
2022-11-19T04:14:35.479Z,5.71
2022-11-19T04:17:03.658Z,6.19
2022-11-19T04:19:31.912Z,6.23
2022-11-19T04:22:01.520Z,6.27
2022-11-19T04:24:29.698Z,6.30
2022-11-19T04:26:57.936Z,6.30
2022-11-19T04:29:26.195Z,6.24
2022-11-19T04:31:54.437Z,6.23
2022-11-19T04:34:22.684Z,6.37
2022-11-19T04:36:50.855Z,6.38
2022-11-19T04:39:20.757Z,6.41
2022-11-19T04:41:49.144Z,6.28
2022-11-19T04:44:17.319Z,6.37
2022-11-19T04:46:45.494Z,6.19
2022-11-19T04:49:13.557Z,6.43
2022-11-19T04:51:41.938Z,5.95
2022-11-19T04:54:10.125Z,6.43
2022-11-19T04:56:39.725Z,6.21
2022-11-19T04:59:07.910Z,6.33
2022-11-19T05:01:36.180Z,6.30
2022-11-19T05:04:04.318Z,6.26
2022-11-19T05:06:33.523Z,6.21
2022-11-19T05:09:01.753Z,6.14
2022-11-19T05:11:29.946Z,5.69
2022-11-19T05:13:59.636Z,6.09
2022-11-19T05:16:27.967Z,6.22
2022-11-19T05:18:56.171Z,6.30
2022-11-19T05:21:24.336Z,6.25
2022-11-19T05:23:52.518Z,6.30
2022-11-19T05:26:20.729Z,6.28
2022-11-19T05:28:48.927Z,6.26
2022-11-19T05:31:18.481Z,6.18
2022-11-19T05:33:46.599Z,6.31
2022-11-19T05:36:14.737Z,6.26
2022-11-19T05:38:42.876Z,6.19
2022-11-19T05:41:10.994Z,6.21
2022-11-19T05:43:39.165Z,6.23
2022-11-19T05:46:07.447Z,6.33
2022-11-19T05:48:37.050Z,6.34
2022-11-19T05:51:05.180Z,6.33
2022-11-19T05:53:33.355Z,6.32
2022-11-19T05:56:01.458Z,6.32
2022-11-19T05:58:29.702Z,6.31
2022-11-19T06:00:59.967Z,6.34
2022-11-19T06:03:28.270Z,6.38
2022-11-19T06:05:57.959Z,6.40
2022-11-19T06:08:26.260Z,6.43
2022-11-19T06:10:54.415Z,6.47
2022-11-19T06:13:22.553Z,6.51
2022-11-19T06:15:50.762Z,6.54
2022-11-19T06:18:18.977Z,6.57
2022-11-19T06:20:47.105Z,6.58
2022-11-19T06:23:16.582Z,6.60
2022-11-19T06:25:44.744Z,6.60
2022-11-19T06:28:12.914Z,6.59
2022-11-19T06:30:41.003Z,6.59
2022-11-19T06:33:09.119Z,6.61
2022-11-19T06:35:37.312Z,6.59
2022-11-19T06:38:05.431Z,6.62
2022-11-19T06:40:35.051Z,6.64
2022-11-19T06:43:03.161Z,6.64
2022-11-19T06:45:31.373Z,6.63
2022-11-19T06:47:59.585Z,6.71
2022-11-19T06:50:27.749Z,6.70
2022-11-19T06:52:55.960Z,6.72
2022-11-19T06:55:24.303Z,6.71
2022-11-19T06:57:53.833Z,6.64
2022-11-19T07:00:21.978Z,6.59
2022-11-19T07:02:50.213Z,6.54
2022-11-19T07:05:18.598Z,6.54
2022-11-19T07:07:46.832Z,6.55
2022-11-19T07:10:15.072Z,6.26
2022-11-19T07:12:43.398Z,6.47
2022-11-19T07:15:13.195Z,6.48
2022-11-19T07:17:42.476Z,6.53
2022-11-19T07:20:11.745Z,6.58
2022-11-19T07:22:41.771Z,6.63
2022-11-19T07:25:12.702Z,6.63
2022-11-19T07:27:41.003Z,6.63
2022-11-19T07:30:11.174Z,6.53
2022-11-19T07:32:40.818Z,6.65
2022-11-19T07:35:10.035Z,6.02
2022-11-19T07:37:38.298Z,5.72
2022-11-19T07:40:07.658Z,6.64
2022-11-19T07:42:49.908Z,6.68
2022-11-19T07:45:18.838Z,6.58
2022-11-19T07:47:48.720Z,6.52
2022-11-19T07:50:17.306Z,6.49
2022-11-19T07:52:45.533Z,6.46
2022-11-19T07:55:13.998Z,6.13
2022-11-19T07:57:42.166Z,6.42
2022-11-19T08:00:11.509Z,6.38
2022-11-19T08:02:39.689Z,6.40
2022-11-19T08:05:10.033Z,6.28
2022-11-19T08:07:38.797Z,6.19
2022-11-19T08:10:08.075Z,6.10
2022-11-19T08:12:36.272Z,6.05
2022-11-19T08:15:05.203Z,5.89
2022-11-19T08:17:50.919Z,5.88
2022-11-19T08:20:20.640Z,5.86
2022-11-19T08:22:48.808Z,5.85
2022-11-19T08:25:17.173Z,5.79
2022-11-19T08:27:45.289Z,5.78
2022-11-19T08:30:14.503Z,4.93
2022-11-19T08:32:42.652Z,5.62
2022-11-19T08:35:11.069Z,5.58
2022-11-19T08:37:40.658Z,5.60
2022-11-19T08:40:10.298Z,5.53
2022-11-19T08:42:55.687Z,5.20
2022-11-19T08:45:23.909Z,5.50
2022-11-19T08:47:52.033Z,5.47
2022-11-19T08:50:21.073Z,5.45
2022-11-19T08:52:56.818Z,5.47
2022-11-19T08:55:25.484Z,5.41
2022-11-19T08:57:53.705Z,5.40
2022-11-19T09:00:22.038Z,5.38
2022-11-19T09:02:50.257Z,5.39
2022-11-19T09:05:18.732Z,4.43
2022-11-19T09:07:46.837Z,5.32
2022-11-19T09:10:17.657Z,5.09
2022-11-19T09:12:45.987Z,5.15
2022-11-19T09:15:14.682Z,5.22
2022-11-19T09:17:46.735Z,5.15
2022-11-19T09:20:15.767Z,5.05
2022-11-19T09:22:44.131Z,4.91
2022-11-19T09:25:12.807Z,5.02
2022-11-19T09:27:42.426Z,4.94
2022-11-19T09:30:11.192Z,4.85
2022-11-19T09:32:39.403Z,4.87
2022-11-19T09:35:08.482Z,4.95
2022-11-19T09:37:36.655Z,5.03
2022-11-19T09:40:05.966Z,5.00
2022-11-19T09:42:44.273Z,4.98
2022-11-19T09:45:20.612Z,5.04
2022-11-19T09:48:04.078Z,4.48
2022-11-19T09:50:35.982Z,4.83
2022-11-19T09:53:10.683Z,5.01
2022-11-19T09:55:41.606Z,4.92
2022-11-19T09:58:15.337Z,4.94
2022-11-19T10:00:45.779Z,5.08
2022-11-19T10:03:16.727Z,4.99
2022-11-19T10:05:58.358Z,4.87
2022-11-19T10:08:41.487Z,4.97
2022-11-19T10:11:25.258Z,4.82
2022-11-19T10:14:04.357Z,4.70
2022-11-19T10:16:48.639Z,4.96
2022-11-19T10:19:28.316Z,4.91
2022-11-19T10:22:08.405Z,4.76
2022-11-19T10:24:43.733Z,4.08
2022-11-19T10:27:20.913Z,4.60
2022-11-19T10:29:53.836Z,4.53
2022-11-19T10:32:31.509Z,4.53
2022-11-19T10:35:04.511Z,4.58
2022-11-19T10:37:40.436Z,4.52
2022-11-19T10:40:14.892Z,4.56
2022-11-19T10:42:48.322Z,4.54
2022-11-19T10:45:19.127Z,4.51
2022-11-19T10:47:56.922Z,4.40
2022-11-19T10:50:27.222Z,4.50
2022-11-19T10:52:57.799Z,4.52
2022-11-19T10:55:30.463Z,4.53
2022-11-19T10:58:08.479Z,4.61
2022-11-19T11:00:37.823Z,4.66
2022-11-19T11:03:14.767Z,2.12
2022-11-19T11:05:57.276Z,4.52
2022-11-19T11:08:26.073Z,4.63
2022-11-19T11:10:54.526Z,4.55
2022-11-19T11:13:46.981Z,4.50
2022-11-19T11:16:18.812Z,4.44
2022-11-19T11:18:49.752Z,4.39
2022-11-19T11:21:30.548Z,4.53
2022-11-19T11:23:59.217Z,4.49
2022-11-19T11:26:29.243Z,4.51
2022-11-19T11:29:00.848Z,4.41
2022-11-19T11:31:41.128Z,3.44
2022-11-19T11:34:16.823Z,4.63
2022-11-19T11:36:45.677Z,4.55
2022-11-19T11:39:27.562Z,4.46
2022-11-19T11:42:17.516Z,4.59
2022-11-19T11:44:52.403Z,4.55
2022-11-19T11:47:23.664Z,4.57
2022-11-19T11:50:01.754Z,4.69
2022-11-19T11:52:35.958Z,4.33
2022-11-19T11:55:07.233Z,4.63
2022-11-19T11:57:37.030Z,4.61
2022-11-19T12:00:30.331Z,4.42
2022-11-19T12:03:02.835Z,3.50
2022-11-19T12:05:44.241Z,4.39
2022-11-19T12:08:26.849Z,4.38
2022-11-19T12:11:03.725Z,4.40
2022-11-19T12:13:55.338Z,4.50
2022-11-19T12:16:33.628Z,4.38
2022-11-19T12:19:13.692Z,4.53
2022-11-19T12:21:51.782Z,4.48
2022-11-19T12:24:36.922Z,4.53
2022-11-19T12:27:17.591Z,4.60
2022-11-19T12:29:58.945Z,4.58
2022-11-19T12:32:48.169Z,4.62
2022-11-19T12:35:31.536Z,4.64
2022-11-19T12:38:22.643Z,4.65
2022-11-19T12:40:59.409Z,4.62
2022-11-19T12:43:49.211Z,4.58
2022-11-19T12:46:24.659Z,4.57
2022-11-19T12:49:09.472Z,4.61
2022-11-19T12:51:48.377Z,4.66
2022-11-19T12:54:50.362Z,4.46
2022-11-19T12:57:36.322Z,4.50
2022-11-19T13:00:14.216Z,4.51
2022-11-19T13:03:04.104Z,2.41
2022-11-19T13:05:42.182Z,4.19
2022-11-19T13:08:16.738Z,4.51
2022-11-19T13:10:50.633Z,4.31
2022-11-19T13:13:22.377Z,4.21
2022-11-19T13:15:59.985Z,4.28
2022-11-19T13:18:33.937Z,4.27
2022-11-19T13:21:05.243Z,4.23
2022-11-19T13:23:39.617Z,4.18
2022-11-19T13:26:14.406Z,4.17
2022-11-19T13:28:47.832Z,4.15
2022-11-19T13:31:31.056Z,4.02
2022-11-19T13:34:03.917Z,4.09
2022-11-19T13:36:36.441Z,4.02
2022-11-19T13:39:12.664Z,3.95
2022-11-19T13:41:59.529Z,3.97
2022-11-19T13:44:41.525Z,3.95
2022-11-19T13:47:15.153Z,3.85
2022-11-19T13:49:46.934Z,3.92
2022-11-19T13:52:25.642Z,3.86
2022-11-19T13:54:54.178Z,3.55
2022-11-19T13:57:32.199Z,3.78
2022-11-19T14:00:06.669Z,3.93
2022-11-19T14:03:03.702Z,3.86
2022-11-19T14:06:06.388Z,3.77
2022-11-19T14:08:48.310Z,3.72
2022-11-19T14:11:32.496Z,3.70
2022-11-19T14:14:50.351Z,3.57
2022-11-19T14:17:43.906Z,3.73
2022-11-19T14:20:52.833Z,3.78
2022-11-19T14:24:00.648Z,3.88
2022-11-19T14:27:03.194Z,3.92
2022-11-19T14:29:58.793Z,3.95
2022-11-19T14:32:36.920Z,4.01
2022-11-19T14:35:23.053Z,4.06
2022-11-19T14:37:54.308Z,3.84
2022-11-19T14:40:25.288Z,4.14
2022-11-19T14:43:43.977Z,4.15
2022-11-19T14:46:34.337Z,3.84
2022-11-19T14:49:25.967Z,3.93
2022-11-19T14:51:56.737Z,3.87
2022-11-19T14:54:34.499Z,3.89
2022-11-19T14:57:07.394Z,3.87
2022-11-19T14:59:38.657Z,3.85
2022-11-19T15:02:20.005Z,3.89
2022-11-19T15:04:55.532Z,3.90
2022-11-19T15:07:43.270Z,3.81
2022-11-19T15:10:47.581Z,3.87
2022-11-19T15:13:25.402Z,3.89
2022-11-19T15:15:59.928Z,3.68
2022-11-19T15:19:00.267Z,3.90
2022-11-19T15:21:55.852Z,4.04
2022-11-19T15:24:36.513Z,4.07
2022-11-19T15:27:18.698Z,4.07
2022-11-19T15:30:07.398Z,3.94
2022-11-19T15:32:57.618Z,4.09
2022-11-19T15:36:04.768Z,4.20
2022-11-19T15:38:38.417Z,4.15
2022-11-19T15:41:08.907Z,3.92
2022-11-19T15:43:42.468Z,4.11
2022-11-19T15:46:14.459Z,2.66
2022-11-19T15:48:56.072Z,4.03
2022-11-19T15:51:25.742Z,3.81
2022-11-19T15:54:02.392Z,4.00
2022-11-19T15:56:35.803Z,3.99
2022-11-19T15:59:05.048Z,3.56
2022-11-19T16:01:34.639Z,3.86
2022-11-19T16:04:08.380Z,3.89
2022-11-19T16:06:40.274Z,3.59
2022-11-19T16:09:08.834Z,3.85
2022-11-19T16:11:57.104Z,3.83
2022-11-19T16:14:44.552Z,3.85
2022-11-19T16:17:31.978Z,3.89
2022-11-19T16:20:05.533Z,3.71
2022-11-19T16:22:38.872Z,3.70
2022-11-19T16:25:13.188Z,3.78
2022-11-19T16:27:43.626Z,3.77
2022-11-19T16:30:19.662Z,3.58
2022-11-19T16:32:48.933Z,3.59
2022-11-19T16:35:24.722Z,3.47
2022-11-19T16:37:56.207Z,3.43
2022-11-19T16:40:24.990Z,3.38
2022-11-19T16:42:56.110Z,3.31
2022-11-19T16:45:26.745Z,3.25
2022-11-19T16:47:57.275Z,3.19
2022-11-19T16:50:33.604Z,3.12
2022-11-19T16:53:04.597Z,3.10
2022-11-19T16:55:46.523Z,3.16
2022-11-19T16:58:20.583Z,3.01
2022-11-19T17:00:51.981Z,3.03
2022-11-19T17:03:34.591Z,2.92
2022-11-19T17:06:04.228Z,2.89
2022-11-19T17:08:36.599Z,2.93
2022-11-19T17:11:37.424Z,2.95
2022-11-19T17:14:20.095Z,2.97
2022-11-19T17:16:50.236Z,2.62
2022-11-19T17:19:26.765Z,2.97
2022-11-19T17:21:59.292Z,2.94
2022-11-19T17:24:32.954Z,2.84
2022-11-19T17:27:01.445Z,2.90
2022-11-19T17:29:29.716Z,2.86
2022-11-19T17:31:58.249Z,2.84
2022-11-19T17:34:32.701Z,2.80
2022-11-19T17:37:01.247Z,2.79
2022-11-19T17:39:30.901Z,2.63
2022-11-19T17:42:16.397Z,2.77
2022-11-19T17:44:44.576Z,2.78
2022-11-19T17:47:24.088Z,2.78
2022-11-19T17:49:53.494Z,2.81
2022-11-19T17:52:24.212Z,2.86
2022-11-19T17:54:56.317Z,2.82
2022-11-19T17:57:24.452Z,2.60
2022-11-19T17:59:52.639Z,2.54
2022-11-19T18:02:22.225Z,2.81
2022-11-19T18:04:50.651Z,2.78
2022-11-19T18:07:19.134Z,2.74
2022-11-19T18:09:47.450Z,2.68
2022-11-19T18:12:20.087Z,2.64
2022-11-19T18:14:48.613Z,2.59
2022-11-19T18:17:17.161Z,2.49
2022-11-19T18:19:45.493Z,2.47
2022-11-19T18:22:18.508Z,2.46
2022-11-19T18:24:48.663Z,1.93
2022-11-19T18:27:19.050Z,2.52
2022-11-19T18:29:47.348Z,2.51
2022-11-19T18:32:17.209Z,2.15
2022-11-19T18:34:46.878Z,1.65
2022-11-19T18:37:15.376Z,2.14
2022-11-19T18:39:43.572Z,2.23
2022-11-19T18:42:13.006Z,2.38
2022-11-19T18:44:43.689Z,2.33
2022-11-19T18:47:14.739Z,2.49
2022-11-19T18:49:42.965Z,2.37
2022-11-19T18:52:15.149Z,2.48
2022-11-19T18:54:43.413Z,2.44
2022-11-19T18:57:12.943Z,2.57
2022-11-19T18:59:42.792Z,2.50
2022-11-19T19:02:11.956Z,2.39
2022-11-19T19:04:40.221Z,2.73
2022-11-19T19:07:08.561Z,2.74
2022-11-19T19:09:37.556Z,2.55
2022-11-19T19:12:21.821Z,2.85
2022-11-19T19:14:52.063Z,1.62
2022-11-19T19:17:20.701Z,2.35
2022-11-19T19:19:49.869Z,2.33
2022-11-19T19:22:18.486Z,2.59
2022-11-19T19:24:47.218Z,2.63
2022-11-19T19:27:16.172Z,2.57
2022-11-19T19:29:44.593Z,2.47
2022-11-19T19:32:14.329Z,2.56
2022-11-19T19:34:42.477Z,2.64
2022-11-19T19:37:10.698Z,2.58
2022-11-19T19:39:39.113Z,2.36
2022-11-19T19:42:07.575Z,2.32
2022-11-19T19:44:36.043Z,2.20
2022-11-19T19:47:04.424Z,1.90
2022-11-19T19:49:38.635Z,2.30
2022-11-19T19:52:07.471Z,2.20
2022-11-19T19:54:35.742Z,2.29
2022-11-19T19:57:03.883Z,2.15
2022-11-19T19:59:32.177Z,2.10
2022-11-19T20:02:00.446Z,2.24
2022-11-19T20:04:28.703Z,2.20
2022-11-19T20:06:58.448Z,2.24
2022-11-19T20:09:27.044Z,2.29
2022-11-19T20:11:55.766Z,1.47
2022-11-19T20:14:24.036Z,2.30
2022-11-19T20:16:52.232Z,2.25
2022-11-19T20:19:20.811Z,2.21
2022-11-19T20:21:49.298Z,2.30
2022-11-19T20:24:20.211Z,2.27
2022-11-19T20:26:48.433Z,2.27
2022-11-19T20:29:17.824Z,2.06
2022-11-19T20:31:48.038Z,2.02
2022-11-19T20:34:17.471Z,1.84
2022-11-19T20:36:45.974Z,2.19
2022-11-19T20:39:14.256Z,2.24
2022-11-19T20:42:01.248Z,2.21
2022-11-19T20:44:29.465Z,2.19
2022-11-19T20:46:59.245Z,2.02
2022-11-19T20:49:29.359Z,1.86
2022-11-19T20:51:58.253Z,1.15
2022-11-19T20:54:27.373Z,1.76
2022-11-19T20:56:57.797Z,1.92
2022-11-19T20:59:27.113Z,1.77
2022-11-19T21:01:56.467Z,2.00
2022-11-19T21:04:26.244Z,1.27
2022-11-19T21:06:54.942Z,2.01
2022-11-19T21:09:23.513Z,1.91
2022-11-19T21:11:52.116Z,2.00
2022-11-19T21:14:21.763Z,2.01
2022-11-19T21:16:49.948Z,2.02
2022-11-19T21:19:18.308Z,1.70
2022-11-19T21:21:46.718Z,1.91
2022-11-19T21:24:14.911Z,2.04
2022-11-19T21:26:43.424Z,2.06
2022-11-19T21:29:11.651Z,2.04
2022-11-19T21:31:42.553Z,1.92
2022-11-19T21:34:12.452Z,1.19
2022-11-19T21:36:42.003Z,1.94
2022-11-19T21:39:10.966Z,1.75
2022-11-19T21:41:39.653Z,1.67
2022-11-19T21:44:08.293Z,1.71
2022-11-19T21:46:36.852Z,1.66
2022-11-19T21:49:06.642Z,1.64
2022-11-19T21:51:35.043Z,1.56
2022-11-19T21:54:03.301Z,1.69
2022-11-19T21:56:37.108Z,1.67
2022-11-19T21:59:07.025Z,1.67
2022-11-19T22:01:35.443Z,1.68
2022-11-19T22:04:03.972Z,1.68
2022-11-19T22:06:33.832Z,1.67
2022-11-19T22:09:02.122Z,1.67
2022-11-19T22:11:30.773Z,1.69
2022-11-19T22:14:01.528Z,1.70
2022-11-19T22:16:30.539Z,1.68
2022-11-19T22:18:58.858Z,1.65
2022-11-19T22:21:29.211Z,1.67
2022-11-19T22:23:58.933Z,1.57
2022-11-19T22:26:27.443Z,1.69
2022-11-19T22:28:56.013Z,1.72
2022-11-19T22:31:24.723Z,1.71
2022-11-19T22:33:54.042Z,1.74
2022-11-19T22:36:23.782Z,1.80
2022-11-19T22:38:52.627Z,1.35
2022-11-19T22:41:22.930Z,1.81
2022-11-19T22:43:52.074Z,1.89
2022-11-19T22:46:20.725Z,1.89
2022-11-19T22:48:49.497Z,2.02
2022-11-19T22:51:21.337Z,2.06
2022-11-19T22:53:49.798Z,1.79
2022-11-19T22:56:19.994Z,2.03
2022-11-19T22:58:50.411Z,1.65
2022-11-19T23:01:20.258Z,1.92
2022-11-19T23:03:48.803Z,1.89
2022-11-19T23:06:17.021Z,1.90
2022-11-19T23:08:45.867Z,1.87
2022-11-19T23:11:15.909Z,1.98
2022-11-19T23:13:44.873Z,2.12
2022-11-19T23:16:15.949Z,1.68
2022-11-19T23:18:48.589Z,2.07
2022-11-19T23:21:19.343Z,1.80
2022-11-19T23:23:47.821Z,2.11
2022-11-19T23:26:16.916Z,2.13
2022-11-19T23:28:45.737Z,2.11
2022-11-19T23:31:18.957Z,1.15
2022-11-19T23:33:48.103Z,2.24
2022-11-19T23:36:17.774Z,1.94
2022-11-19T23:38:46.361Z,2.20
2022-11-19T23:41:17.046Z,2.21
2022-11-19T23:43:45.818Z,2.21
2022-11-19T23:46:16.992Z,1.56
2022-11-19T23:48:47.143Z,2.02
2022-11-19T23:51:17.176Z,2.23
2022-11-19T23:53:46.324Z,2.27
2022-11-19T23:56:16.146Z,2.01
2022-11-19T23:58:44.637Z,2.30
